createdAt,value
2023-01-29T00:02:01.463Z,102496.66
2023-01-29T00:04:30.430Z,102489.69
2023-01-29T00:06:58.179Z,102498.47
2023-01-29T00:09:25.745Z,102496.78
2023-01-29T00:11:53.315Z,102494.97
2023-01-29T00:14:21.165Z,102499.41
2023-01-29T00:16:48.767Z,102503.97
2023-01-29T00:19:17.446Z,102504.81
2023-01-29T00:21:46.754Z,102510.09
2023-01-29T00:24:14.418Z,102499.88
2023-01-29T00:26:43.139Z,102490.28
2023-01-29T00:29:11.041Z,102489.19
2023-01-29T00:31:39.103Z,102477.78
2023-01-29T00:34:06.723Z,102477.78
2023-01-29T00:36:34.334Z,102484.16
2023-01-29T00:39:10.813Z,102486.06
2023-01-29T00:41:56.586Z,102502.13
2023-01-29T00:44:41.607Z,102495.16
2023-01-29T00:47:29.901Z,102492.53
2023-01-29T00:49:58.182Z,102492.63
2023-01-29T00:52:25.857Z,102493.59
2023-01-29T00:54:56.642Z,102493.69
2023-01-29T00:57:25.000Z,102485.06
2023-01-29T00:59:52.703Z,102483.25
2023-01-29T01:02:38.202Z,102479.78
2023-01-29T01:05:10.281Z,102484.19
2023-01-29T01:07:37.862Z,102488.53
2023-01-29T01:10:21.953Z,102481.34
2023-01-29T01:12:51.995Z,102478.69
2023-01-29T01:15:20.159Z,102469.69
2023-01-29T01:17:48.836Z,102481.00
2023-01-29T01:20:17.024Z,102478.38
2023-01-29T01:22:44.801Z,102467.69
2023-01-29T01:25:13.968Z,102458.69
2023-01-29T01:27:41.930Z,102462.06
2023-01-29T01:30:12.590Z,102462.66
2023-01-29T01:32:40.882Z,102465.19
2023-01-29T01:35:09.842Z,102454.63
2023-01-29T01:37:38.694Z,102465.19
2023-01-29T01:40:12.650Z,102474.06
2023-01-29T01:42:41.848Z,102476.09
2023-01-29T01:45:20.565Z,102463.00
2023-01-29T01:47:51.572Z,102462.41
2023-01-29T01:50:23.567Z,102465.25
2023-01-29T01:52:56.645Z,102465.63
2023-01-29T01:55:27.815Z,102450.09
2023-01-29T01:58:00.887Z,102447.91
2023-01-29T02:00:28.879Z,102436.97
2023-01-29T02:03:14.178Z,102425.19
2023-01-29T02:06:00.523Z,102430.91
2023-01-29T02:08:54.485Z,102436.75
2023-01-29T02:11:22.190Z,102426.41
2023-01-29T02:13:53.669Z,102415.00
2023-01-29T02:16:22.081Z,102403.50
2023-01-29T02:18:50.958Z,102407.44
2023-01-29T02:21:46.308Z,102403.72
2023-01-29T02:24:55.447Z,102394.97
2023-01-29T02:27:28.261Z,102388.84
2023-01-29T02:30:04.437Z,102382.84
2023-01-29T02:32:40.401Z,102374.69
2023-01-29T02:35:29.704Z,102372.28
2023-01-29T02:38:06.516Z,102373.63
2023-01-29T02:40:41.347Z,102379.53
2023-01-29T02:43:18.853Z,102367.06
2023-01-29T02:45:52.831Z,102360.84
2023-01-29T02:48:23.301Z,102363.59
2023-01-29T02:50:59.432Z,102354.22
2023-01-29T02:53:33.595Z,102354.31
2023-01-29T02:56:08.713Z,102353.72
2023-01-29T02:58:42.740Z,102357.31
2023-01-29T03:01:16.762Z,102352.88
2023-01-29T03:03:48.846Z,102348.31
2023-01-29T03:06:22.363Z,102347.47
2023-01-29T03:08:56.275Z,102356.22
2023-01-29T03:11:24.359Z,102363.31
2023-01-29T03:13:57.758Z,102361.50
2023-01-29T03:16:34.252Z,102364.06
2023-01-29T03:19:06.581Z,102362.34
2023-01-29T03:21:55.008Z,102376.16
2023-01-29T03:24:52.332Z,102361.06
2023-01-29T03:27:41.629Z,102363.69
2023-01-29T03:30:31.313Z,102356.63
2023-01-29T03:33:04.562Z,102362.53
2023-01-29T03:35:37.485Z,102358.91
2023-01-29T03:38:05.879Z,102357.03
2023-01-29T03:40:40.213Z,102358.69
2023-01-29T03:43:15.072Z,102367.34
2023-01-29T03:45:55.054Z,102369.00
2023-01-29T03:48:33.797Z,102367.97
2023-01-29T03:51:11.825Z,102365.19
2023-01-29T03:53:44.986Z,102368.69
2023-01-29T03:56:26.363Z,102367.75
2023-01-29T03:58:59.992Z,102368.44
2023-01-29T04:01:34.443Z,102371.09
2023-01-29T04:04:10.426Z,102367.25
2023-01-29T04:06:41.421Z,102366.31
2023-01-29T04:09:14.707Z,102373.28
2023-01-29T04:11:46.719Z,102362.50
2023-01-29T04:14:15.523Z,102350.13
2023-01-29T04:16:48.292Z,102351.78
2023-01-29T04:19:17.922Z,102346.28
2023-01-29T04:21:49.428Z,102338.25
2023-01-29T04:24:18.061Z,102318.22
2023-01-29T04:26:57.091Z,102309.31
2023-01-29T04:29:38.828Z,102315.44
2023-01-29T04:32:15.828Z,102320.13
2023-01-29T04:34:56.695Z,102305.84
2023-01-29T04:37:36.205Z,102319.88
2023-01-29T04:40:16.201Z,102308.47
2023-01-29T04:42:51.135Z,102303.94
2023-01-29T04:45:25.258Z,102304.88
2023-01-29T04:48:06.220Z,102295.16
2023-01-29T04:50:39.564Z,102289.03
2023-01-29T04:53:16.424Z,102286.41
2023-01-29T04:55:50.661Z,102318.94
2023-01-29T04:58:27.372Z,102326.84
2023-01-29T05:00:56.059Z,102334.78
2023-01-29T05:03:27.625Z,102337.28
2023-01-29T05:05:59.168Z,102332.75
2023-01-29T05:08:29.652Z,102314.13
2023-01-29T05:10:58.743Z,102284.25
2023-01-29T05:13:29.281Z,102300.94
2023-01-29T05:16:01.378Z,102288.47
2023-01-29T05:18:30.301Z,102275.13
2023-01-29T05:21:03.141Z,102268.16
2023-01-29T05:23:30.945Z,102273.94
2023-01-29T05:25:59.110Z,102263.50
2023-01-29T05:28:25.778Z,102259.06
2023-01-29T05:30:56.065Z,102257.13
2023-01-29T05:33:27.629Z,102245.63
2023-01-29T05:35:56.152Z,102253.44
2023-01-29T05:38:25.117Z,102252.59
2023-01-29T05:40:52.790Z,102248.16
2023-01-29T05:43:22.180Z,102243.56
2023-01-29T05:45:54.386Z,102243.34
2023-01-29T05:48:22.024Z,102232.53
2023-01-29T05:50:49.964Z,102236.88
2023-01-29T05:53:17.655Z,102236.88
2023-01-29T05:55:47.872Z,102222.91
2023-01-29T05:58:15.599Z,102216.69
2023-01-29T06:00:43.190Z,102219.94
2023-01-29T06:03:10.871Z,102224.38
2023-01-29T06:05:39.348Z,102218.09
2023-01-29T06:08:08.390Z,102215.34
2023-01-29T06:10:36.382Z,102210.91
2023-01-29T06:13:05.391Z,102208.28
2023-01-29T06:15:33.055Z,102206.25
2023-01-29T06:18:00.742Z,102202.38
2023-01-29T06:20:28.468Z,102196.25
2023-01-29T06:22:56.221Z,102198.53
2023-01-29T06:25:23.960Z,102200.22
2023-01-29T06:27:51.792Z,102210.41
2023-01-29T06:30:21.101Z,102198.16
2023-01-29T06:32:48.721Z,102197.09
2023-01-29T06:35:16.382Z,102190.13
2023-01-29T06:37:44.039Z,102184.59
2023-01-29T06:40:13.016Z,102183.88
2023-01-29T06:42:40.579Z,102182.06
2023-01-29T06:45:09.660Z,102173.06
2023-01-29T06:47:38.599Z,102169.59
2023-01-29T06:50:06.903Z,102168.50
2023-01-29T06:52:34.494Z,102169.44
2023-01-29T06:55:02.076Z,102167.63
2023-01-29T06:57:29.989Z,102158.03
2023-01-29T06:59:57.864Z,102152.63
2023-01-29T07:02:25.515Z,102157.22
2023-01-29T07:04:54.692Z,102156.13
2023-01-29T07:07:22.288Z,102157.22
2023-01-29T07:09:49.865Z,102163.56
2023-01-29T07:12:18.273Z,102171.47
2023-01-29T07:14:45.952Z,102163.56
2023-01-29T07:17:13.646Z,102170.53
2023-01-29T07:19:41.436Z,102163.69
2023-01-29T07:22:10.373Z,102161.91
2023-01-29T07:24:38.032Z,102155.88
2023-01-29T07:27:05.720Z,102160.47
2023-01-29T07:29:33.305Z,102153.25
2023-01-29T07:32:01.345Z,102157.47
2023-01-29T07:34:29.100Z,102150.25
2023-01-29T07:36:56.825Z,102152.03
2023-01-29T07:39:25.921Z,102150.94
2023-01-29T07:41:53.505Z,102154.31
2023-01-29T07:44:21.100Z,102149.75
2023-01-29T07:46:48.699Z,102141.56
2023-01-29T07:49:16.738Z,102144.66
2023-01-29T07:51:44.399Z,102142.16
2023-01-29T07:54:12.607Z,102142.16
2023-01-29T07:56:41.659Z,102147.91
2023-01-29T07:59:09.279Z,102141.06
2023-01-29T08:01:36.874Z,102148.00
2023-01-29T08:04:04.532Z,102152.09
2023-01-29T08:06:32.246Z,102156.78
2023-01-29T08:08:59.879Z,102153.88
2023-01-29T08:11:27.573Z,102148.19
2023-01-29T08:13:57.393Z,102152.53
2023-01-29T08:16:24.996Z,102151.16
2023-01-29T08:18:52.574Z,102149.47
2023-01-29T08:21:20.211Z,102149.63
2023-01-29T08:23:47.804Z,102145.75
2023-01-29T08:26:15.447Z,102136.00
2023-01-29T08:28:43.066Z,102135.75
2023-01-29T08:31:16.420Z,102149.56
2023-01-29T08:33:44.045Z,102138.16
2023-01-29T08:36:11.832Z,102138.59
2023-01-29T08:38:39.814Z,102136.69
2023-01-29T08:41:08.434Z,102134.72
2023-01-29T08:43:36.961Z,102134.72
2023-01-29T08:46:05.860Z,102133.53
2023-01-29T08:48:35.601Z,102119.56
2023-01-29T08:51:04.525Z,102103.69
2023-01-29T08:53:32.677Z,102110.56
2023-01-29T08:56:00.318Z,102097.06
2023-01-29T08:58:28.115Z,102105.56
2023-01-29T09:00:55.731Z,102084.56
2023-01-29T09:03:23.319Z,102074.56
2023-01-29T09:05:52.252Z,102064.56
2023-01-29T09:08:19.853Z,102059.13
2023-01-29T09:10:47.536Z,102057.75
2023-01-29T09:13:15.176Z,102062.94
2023-01-29T09:15:42.788Z,102061.88
2023-01-29T09:18:10.440Z,102068.81
2023-01-29T09:20:38.823Z,102063.84
2023-01-29T09:23:09.800Z,102064.84
2023-01-29T09:25:38.476Z,102062.97
2023-01-29T09:28:07.141Z,102079.31
2023-01-29T09:30:37.639Z,102069.00
2023-01-29T09:33:05.782Z,102066.59
2023-01-29T09:35:33.781Z,102058.50
2023-01-29T09:38:02.160Z,102053.47
2023-01-29T09:40:36.525Z,102048.19
2023-01-29T09:43:07.615Z,102054.06
2023-01-29T09:45:36.796Z,102045.28
2023-01-29T09:48:06.732Z,102048.63
2023-01-29T09:50:39.961Z,102045.41
2023-01-29T09:53:18.348Z,102048.66
2023-01-29T09:55:51.340Z,102045.03
2023-01-29T09:58:23.826Z,102034.97
2023-01-29T10:01:00.304Z,102031.50
2023-01-29T10:03:44.662Z,102027.88
2023-01-29T10:06:30.435Z,102027.03
2023-01-29T10:09:24.768Z,102013.66
2023-01-29T10:12:00.847Z,102008.03
2023-01-29T10:14:40.575Z,102001.03
2023-01-29T10:17:25.142Z,101992.84
2023-01-29T10:20:07.957Z,101992.13
2023-01-29T10:23:01.258Z,101995.28
2023-01-29T10:25:29.082Z,101981.88
2023-01-29T10:28:01.351Z,101981.59
2023-01-29T10:30:33.315Z,101981.59
2023-01-29T10:33:04.268Z,101972.97
2023-01-29T10:35:35.796Z,101973.81
2023-01-29T10:38:19.580Z,101967.13
2023-01-29T10:40:54.072Z,101956.53
2023-01-29T10:43:30.549Z,101959.91
2023-01-29T10:46:13.247Z,101953.19
2023-01-29T10:48:50.279Z,101959.06
2023-01-29T10:51:31.978Z,101952.38
2023-01-29T10:54:13.242Z,101945.94
2023-01-29T10:56:57.083Z,101938.00
2023-01-29T10:59:40.453Z,101944.28
2023-01-29T11:02:16.155Z,101955.25
2023-01-29T11:04:43.807Z,101952.03
2023-01-29T11:07:12.628Z,101941.00
2023-01-29T11:09:44.878Z,101938.78
2023-01-29T11:12:15.283Z,101929.84
2023-01-29T11:14:51.635Z,101921.34
2023-01-29T11:17:20.768Z,101928.47
2023-01-29T11:19:51.157Z,101929.69
2023-01-29T11:22:20.828Z,101924.94
2023-01-29T11:25:07.678Z,101919.91
2023-01-29T11:27:40.783Z,101912.50
2023-01-29T11:30:17.615Z,101911.81
2023-01-29T11:32:45.669Z,101910.66
2023-01-29T11:35:22.629Z,101896.59
2023-01-29T11:37:50.325Z,101893.72
2023-01-29T11:40:36.718Z,101892.63
2023-01-29T11:43:19.952Z,101882.63
2023-01-29T11:45:51.072Z,101873.56
2023-01-29T11:48:20.842Z,101868.81
2023-01-29T11:50:58.355Z,101866.44
2023-01-29T11:53:37.192Z,101855.03
2023-01-29T11:56:17.550Z,101851.97
2023-01-29T11:58:46.702Z,101843.31
2023-01-29T12:01:19.139Z,101848.06
2023-01-29T12:03:51.894Z,101843.59
2023-01-29T12:06:22.993Z,101826.31
2023-01-29T12:08:57.015Z,101819.66
2023-01-29T12:11:30.542Z,101812.28
2023-01-29T12:14:00.774Z,101809.94
2023-01-29T12:16:34.451Z,101808.56
2023-01-29T12:19:12.046Z,101796.53
2023-01-29T12:21:48.030Z,101785.25
2023-01-29T12:24:30.388Z,101790.25
2023-01-29T12:27:08.483Z,101793.47
2023-01-29T12:29:44.559Z,101797.63
2023-01-29T12:32:27.322Z,101774.94
2023-01-29T12:35:02.659Z,101775.38
2023-01-29T12:37:41.750Z,101767.56
2023-01-29T12:40:14.825Z,101773.81
2023-01-29T12:42:47.054Z,101768.94
2023-01-29T12:45:19.050Z,101767.84
2023-01-29T12:47:52.959Z,101762.28
2023-01-29T12:50:23.014Z,101752.38
2023-01-29T12:52:54.777Z,101736.09
2023-01-29T12:55:25.294Z,101745.41
2023-01-29T12:57:57.843Z,101743.75
2023-01-29T13:00:28.261Z,101732.44
2023-01-29T13:03:01.600Z,101737.06
2023-01-29T13:05:35.512Z,101717.41
2023-01-29T13:08:09.337Z,101727.44
2023-01-29T13:10:39.808Z,101723.81
2023-01-29T13:13:15.725Z,101714.94
2023-01-29T13:15:45.231Z,101721.47
2023-01-29T13:18:33.067Z,101709.34
2023-01-29T13:21:01.930Z,101702.78
2023-01-29T13:23:34.800Z,101694.31
2023-01-29T13:26:02.724Z,101695.00
2023-01-29T13:28:31.555Z,101673.16
2023-01-29T13:31:28.142Z,101687.47
2023-01-29T13:34:08.462Z,101675.63
2023-01-29T13:36:42.260Z,101671.59
2023-01-29T13:39:20.694Z,101679.25
2023-01-29T13:41:48.741Z,101674.22
2023-01-29T13:44:23.496Z,101671.47
2023-01-29T13:46:56.893Z,101666.28
2023-01-29T13:49:38.614Z,101663.34
2023-01-29T13:52:18.484Z,101675.47
2023-01-29T13:54:54.005Z,101661.44
2023-01-29T13:57:55.670Z,101662.50
2023-01-29T14:00:58.009Z,101655.84
2023-01-29T14:04:02.200Z,101655.56
2023-01-29T14:06:47.980Z,101635.34
2023-01-29T14:09:55.330Z,101652.78
2023-01-29T14:12:43.665Z,101649.44
2023-01-29T14:15:29.773Z,101644.28
2023-01-29T14:18:13.398Z,101632.44
2023-01-29T14:20:51.509Z,101632.16
2023-01-29T14:23:48.236Z,101626.56
2023-01-29T14:26:29.686Z,101621.16
2023-01-29T14:29:05.831Z,101617.97
2023-01-29T14:31:42.574Z,101618.25
2023-01-29T14:34:19.150Z,101611.53
2023-01-29T14:36:50.342Z,101619.59
2023-01-29T14:39:29.115Z,101607.38
2023-01-29T14:41:58.397Z,101613.25
2023-01-29T14:44:49.265Z,101614.38
2023-01-29T14:47:21.270Z,101604.88
2023-01-29T14:49:50.468Z,101593.78
2023-01-29T14:52:21.019Z,101586.78
2023-01-29T14:54:52.322Z,101587.75
2023-01-29T14:57:21.152Z,101578.31
2023-01-29T14:59:55.379Z,101574.97
2023-01-29T15:02:27.643Z,101572.19
2023-01-29T15:04:59.629Z,101564.53
2023-01-29T15:07:33.122Z,101543.94
2023-01-29T15:10:21.885Z,101544.94
2023-01-29T15:12:55.743Z,101535.63
2023-01-29T15:15:37.412Z,101534.94
2023-01-29T15:18:09.863Z,101536.88
2023-01-29T15:20:38.890Z,101525.22
2023-01-29T15:23:25.303Z,101531.75
2023-01-29T15:25:57.641Z,101536.78
2023-01-29T15:28:25.500Z,101533.84
2023-01-29T15:30:56.948Z,101538.28
2023-01-29T15:33:24.697Z,101531.47
2023-01-29T15:36:06.797Z,101527.88
2023-01-29T15:38:35.269Z,101518.13
2023-01-29T15:41:15.946Z,101516.03
2023-01-29T15:43:47.391Z,101515.22
2023-01-29T15:46:22.048Z,101518.69
2023-01-29T15:48:51.169Z,101519.22
2023-01-29T15:51:21.703Z,101513.13
2023-01-29T15:53:52.894Z,101511.16
2023-01-29T15:56:27.810Z,101511.84
2023-01-29T15:58:58.656Z,101514.47
2023-01-29T16:01:27.784Z,101504.19
2023-01-29T16:03:59.062Z,101493.75
2023-01-29T16:06:36.642Z,101493.06
2023-01-29T16:09:05.912Z,101484.03
2023-01-29T16:11:35.627Z,101487.75
2023-01-29T16:14:05.705Z,101483.19
2023-01-29T16:16:33.407Z,101470.81
2023-01-29T16:19:01.630Z,101469.25
2023-01-29T16:21:33.231Z,101464.13
2023-01-29T16:24:03.597Z,101450.22
2023-01-29T16:26:35.174Z,101457.44
2023-01-29T16:29:08.339Z,101452.16
2023-01-29T16:31:37.458Z,101442.41
2023-01-29T16:34:10.260Z,101447.72
2023-01-29T16:36:38.143Z,101443.94
2023-01-29T16:39:15.478Z,101443.09
2023-01-29T16:41:44.082Z,101430.88
2023-01-29T16:44:39.223Z,101416.81
2023-01-29T16:47:12.823Z,101413.34
2023-01-29T16:49:45.540Z,101419.31
2023-01-29T16:52:20.148Z,101410.41
2023-01-29T16:54:47.736Z,101407.09
2023-01-29T16:57:19.539Z,101407.63
2023-01-29T16:59:48.664Z,101408.44
2023-01-29T17:02:24.547Z,101401.03
2023-01-29T17:04:53.538Z,101402.84
2023-01-29T17:07:22.254Z,101406.88
2023-01-29T17:09:52.432Z,101387.81
2023-01-29T17:12:22.644Z,101388.81
2023-01-29T17:14:56.588Z,101375.59
2023-01-29T17:17:30.564Z,101370.31
2023-01-29T17:19:58.905Z,101363.47
2023-01-29T17:22:26.495Z,101359.88
2023-01-29T17:24:54.112Z,101344.84
2023-01-29T17:27:23.677Z,101333.03
2023-01-29T17:29:52.699Z,101335.41
2023-01-29T17:32:22.534Z,101339.00
2023-01-29T17:34:51.388Z,101341.66
2023-01-29T17:37:20.046Z,101332.03
2023-01-29T17:39:50.416Z,101335.22
2023-01-29T17:42:18.231Z,101345.13
2023-01-29T17:44:46.156Z,101339.00
2023-01-29T17:47:15.524Z,101318.81
2023-01-29T17:49:44.638Z,101310.88
2023-01-29T17:52:12.322Z,101306.97
2023-01-29T17:54:39.954Z,101298.38
2023-01-29T17:57:07.609Z,101296.03
2023-01-29T17:59:35.386Z,101291.72
2023-01-29T18:02:03.121Z,101276.81
2023-01-29T18:04:30.725Z,101272.81
2023-01-29T18:06:59.829Z,101271.16
2023-01-29T18:09:27.954Z,101254.63
2023-01-29T18:11:55.616Z,101253.47
2023-01-29T18:14:23.478Z,101231.34
2023-01-29T18:16:51.094Z,101218.97
2023-01-29T18:19:23.171Z,101216.78
2023-01-29T18:21:52.388Z,101217.44
2023-01-29T18:24:21.942Z,101217.59
2023-01-29T18:26:51.001Z,101223.19
2023-01-29T18:29:18.666Z,101218.44
2023-01-29T18:31:49.403Z,101217.59
2023-01-29T18:34:17.081Z,101192.44
2023-01-29T18:36:47.588Z,101210.66
2023-01-29T18:39:15.362Z,101178.91
2023-01-29T18:41:44.583Z,101186.19
2023-01-29T18:44:12.267Z,101174.78
2023-01-29T18:46:39.876Z,101173.56
2023-01-29T18:49:07.593Z,101158.06
2023-01-29T18:51:35.352Z,101163.00
2023-01-29T18:54:03.919Z,101157.69
2023-01-29T18:56:31.583Z,101152.84
2023-01-29T18:59:00.592Z,101147.88
2023-01-29T19:01:28.258Z,101158.75
2023-01-29T19:03:56.059Z,101140.09
2023-01-29T19:06:23.646Z,101140.94
2023-01-29T19:08:51.251Z,101126.53
2023-01-29T19:11:18.867Z,101121.25
2023-01-29T19:13:47.930Z,101114.81
2023-01-29T19:16:16.922Z,101115.94
2023-01-29T19:18:44.558Z,101122.88
2023-01-29T19:21:14.982Z,101095.63
2023-01-29T19:23:44.502Z,101101.38
2023-01-29T19:26:13.625Z,101107.50
2023-01-29T19:28:42.244Z,101107.78
2023-01-29T19:31:11.816Z,101097.34
2023-01-29T19:33:41.488Z,101102.81
2023-01-29T19:36:09.782Z,101090.44
2023-01-29T19:38:38.723Z,101088.75
2023-01-29T19:41:06.771Z,101085.94
2023-01-29T19:43:34.675Z,101067.44
2023-01-29T19:46:02.905Z,101077.06
2023-01-29T19:48:30.940Z,101064.81
2023-01-29T19:51:01.519Z,101064.69
2023-01-29T19:53:29.988Z,101067.31
2023-01-29T19:55:58.992Z,101081.50
2023-01-29T19:58:26.917Z,101076.91
2023-01-29T20:00:56.116Z,101073.44
2023-01-29T20:03:23.956Z,101061.06
2023-01-29T20:05:52.079Z,101061.06
2023-01-29T20:08:21.023Z,101056.97
2023-01-29T20:10:49.733Z,101057.81
2023-01-29T20:13:17.367Z,101050.56
2023-01-29T20:15:46.552Z,101005.47
2023-01-29T20:18:14.937Z,101029.94
2023-01-29T20:20:44.846Z,101010.97
2023-01-29T20:23:13.331Z,101006.38
2023-01-29T20:25:42.537Z,101014.97
2023-01-29T20:28:13.172Z,101016.34
2023-01-29T20:30:42.045Z,101016.34
2023-01-29T20:33:12.972Z,101000.31
2023-01-29T20:35:40.763Z,100994.56
2023-01-29T20:38:08.475Z,100982.84
2023-01-29T20:40:36.050Z,100965.84
2023-01-29T20:43:05.198Z,100970.13
2023-01-29T20:45:36.089Z,100980.69
2023-01-29T20:48:06.355Z,100973.47
2023-01-29T20:50:34.610Z,100967.16
2023-01-29T20:53:02.602Z,100973.66
2023-01-29T20:55:31.489Z,100970.34
2023-01-29T20:58:06.239Z,100954.63
2023-01-29T21:00:36.005Z,100946.84
2023-01-29T21:03:03.768Z,100933.50
2023-01-29T21:05:31.483Z,100951.16
2023-01-29T21:07:59.127Z,100938.59
2023-01-29T21:10:26.874Z,100936.13
2023-01-29T21:12:54.548Z,100943.22
2023-01-29T21:15:23.308Z,100944.06
2023-01-29T21:17:52.634Z,100922.06
2023-01-29T21:20:20.560Z,100893.81
2023-01-29T21:22:49.062Z,100876.97
2023-01-29T21:25:20.083Z,100886.56
2023-01-29T21:27:47.734Z,100891.53
2023-01-29T21:30:15.812Z,100884.75
2023-01-29T21:32:43.720Z,100869.03
2023-01-29T21:35:12.831Z,100879.59
2023-01-29T21:37:40.432Z,100882.25
2023-01-29T21:40:10.464Z,100884.75
2023-01-29T21:42:55.852Z,100871.53
2023-01-29T21:45:23.440Z,100867.06
2023-01-29T21:47:51.450Z,100847.88
2023-01-29T21:50:20.719Z,100840.63
2023-01-29T21:52:48.358Z,100834.31
2023-01-29T21:55:16.681Z,100830.69
2023-01-29T21:57:46.640Z,100845.91
2023-01-29T22:00:15.218Z,100841.28
2023-01-29T22:02:43.138Z,100829.69
2023-01-29T22:05:18.604Z,100826.38
2023-01-29T22:07:49.266Z,100821.09
2023-01-29T22:10:18.731Z,100828.72
2023-01-29T22:12:47.161Z,100799.47
2023-01-29T22:15:16.223Z,100790.84
2023-01-29T22:17:44.135Z,100792.84
2023-01-29T22:20:14.184Z,100784.91
2023-01-29T22:22:42.007Z,100779.44
2023-01-29T22:25:11.562Z,100769.06
2023-01-29T22:27:39.628Z,100776.81
2023-01-29T22:30:08.617Z,100767.06
2023-01-29T22:32:36.327Z,100763.25
2023-01-29T22:35:04.067Z,100763.13
2023-01-29T22:37:31.638Z,100746.44
2023-01-29T22:39:59.199Z,100729.59
2023-01-29T22:42:28.256Z,100731.41
2023-01-29T22:44:55.920Z,100735.53
2023-01-29T22:47:23.524Z,100715.53
2023-01-29T22:49:52.354Z,100715.03
2023-01-29T22:52:22.156Z,100705.47
2023-01-29T22:54:51.425Z,100700.16
2023-01-29T22:57:19.278Z,100692.88
2023-01-29T22:59:48.303Z,100684.63
2023-01-29T23:02:15.970Z,100693.22
2023-01-29T23:04:43.568Z,100680.19
2023-01-29T23:07:11.503Z,100679.34
2023-01-29T23:09:39.083Z,100672.75
2023-01-29T23:12:07.882Z,100663.97
2023-01-29T23:14:35.476Z,100664.47
2023-01-29T23:17:04.453Z,100656.56
2023-01-29T23:19:32.076Z,100631.59
2023-01-29T23:21:59.725Z,100642.16
2023-01-29T23:24:27.418Z,100632.41
2023-01-29T23:27:12.537Z,100628.75
2023-01-29T23:29:40.111Z,100636.88
2023-01-29T23:32:09.174Z,100621.16
2023-01-29T23:34:36.782Z,100610.59
2023-01-29T23:37:04.446Z,100601.00
2023-01-29T23:39:32.245Z,100590.78
2023-01-29T23:42:00.185Z,100593.22
2023-01-29T23:44:27.880Z,100589.94
2023-01-29T23:46:55.803Z,100583.66
2023-01-29T23:49:24.761Z,100568.59
2023-01-29T23:51:52.555Z,100564.97
2023-01-29T23:54:20.314Z,100561.34
2023-01-29T23:56:47.926Z,100556.72
2023-01-29T23:59:16.010Z,100552.59
